sensor_id;sensor_type;location;lat;lon;timestamp;pressure;altitude;pressure_sealevel;temperature;humidity
34103;BME280;20381;54.498;18.206;2022-12-29T00:03:02;98704.41;;;6.57;93.96
34103;BME280;20381;54.498;18.206;2022-12-29T00:09:30;98694.80;;;6.59;93.96
34103;BME280;20381;54.498;18.206;2022-12-29T00:15:57;98691.44;;;6.57;94.08
34103;BME280;20381;54.498;18.206;2022-12-29T00:22:25;98682.73;;;6.58;94.07
34103;BME280;20381;54.498;18.206;2022-12-29T00:29:09;98681.98;;;6.56;94.09
34103;BME280;20381;54.498;18.206;2022-12-29T00:36:01;98670.31;;;6.56;94.04
34103;BME280;20381;54.498;18.206;2022-12-29T00:42:26;98673.06;;;6.53;94.10
34103;BME280;20381;54.498;18.206;2022-12-29T00:48:59;98675.09;;;6.55;93.95
34103;BME280;20381;54.498;18.206;2022-12-29T00:55:44;98664.80;;;6.44;93.89
34103;BME280;20381;54.498;18.206;2022-12-29T01:05:11;98647.39;;;6.46;94.16
34103;BME280;20381;54.498;18.206;2022-12-29T01:11:39;98636.50;;;6.48;94.14
34103;BME280;20381;54.498;18.206;2022-12-29T01:18:06;98647.64;;;6.50;94.11
34103;BME280;20381;54.498;18.206;2022-12-29T01:24:33;98641.02;;;6.54;94.11
34103;BME280;20381;54.498;18.206;2022-12-29T01:27:01;98639.56;;;6.57;94.26
34103;BME280;20381;54.498;18.206;2022-12-29T01:29:30;98638.64;;;6.58;94.18
34103;BME280;20381;54.498;18.206;2022-12-29T01:31:58;98633.08;;;6.57;94.12
34103;BME280;20381;54.498;18.206;2022-12-29T01:34:27;98637.13;;;6.54;94.06
34103;BME280;20381;54.498;18.206;2022-12-29T01:36:56;98640.40;;;6.57;94.21
34103;BME280;20381;54.498;18.206;2022-12-29T01:39:27;98637.89;;;6.56;94.14
34103;BME280;20381;54.498;18.206;2022-12-29T01:41:55;98635.89;;;6.61;94.39
34103;BME280;20381;54.498;18.206;2022-12-29T01:48:23;98632.56;;;6.59;94.17
34103;BME280;20381;54.498;18.206;2022-12-29T01:55:02;98627.27;;;6.52;94.11
34103;BME280;20381;54.498;18.206;2022-12-29T01:57:34;98611.23;;;6.43;94.15
34103;BME280;20381;54.498;18.206;2022-12-29T02:00:08;98623.31;;;6.44;94.25
34103;BME280;20381;54.498;18.206;2022-12-29T02:02:37;98613.83;;;6.43;94.24
34103;BME280;20381;54.498;18.206;2022-12-29T02:05:14;98618.64;;;6.42;94.25
34103;BME280;20381;54.498;18.206;2022-12-29T02:07:42;98611.23;;;6.43;94.39
34103;BME280;20381;54.498;18.206;2022-12-29T02:10:09;98617.42;;;6.49;94.43
34103;BME280;20381;54.498;18.206;2022-12-29T02:12:36;98608.64;;;6.43;94.13
34103;BME280;20381;54.498;18.206;2022-12-29T02:15:04;98615.13;;;6.43;94.26
34103;BME280;20381;54.498;18.206;2022-12-29T02:20:51;98608.13;;;6.54;94.51
34103;BME280;20381;54.498;18.206;2022-12-29T02:27:51;98601.48;;;6.48;94.30
34103;BME280;20381;54.498;18.206;2022-12-29T02:44:36;98578.81;;;6.26;94.09
34103;BME280;20381;54.498;18.206;2022-12-29T02:47:30;98584.52;;;6.24;94.09
34103;BME280;20381;54.498;18.206;2022-12-29T02:52:47;98581.50;;;6.33;94.40
34103;BME280;20381;54.498;18.206;2022-12-29T02:55:25;98580.27;;;6.32;94.26
34103;BME280;20381;54.498;18.206;2022-12-29T03:01:02;98563.73;;;6.34;94.35
34103;BME280;20381;54.498;18.206;2022-12-29T03:03:43;98561.91;;;6.36;94.40
34103;BME280;20381;54.498;18.206;2022-12-29T03:12:03;98540.86;;;6.42;94.31
34103;BME280;20381;54.498;18.206;2022-12-29T03:17:51;98552.16;;;6.41;94.25
34103;BME280;20381;54.498;18.206;2022-12-29T03:20:22;98546.66;;;6.39;94.20
34103;BME280;20381;54.498;18.206;2022-12-29T03:22:56;98553.05;;;6.40;94.32
34103;BME280;20381;54.498;18.206;2022-12-29T03:25:32;98551.30;;;6.41;94.42
34103;BME280;20381;54.498;18.206;2022-12-29T03:28:11;98544.50;;;6.38;94.22
34103;BME280;20381;54.498;18.206;2022-12-29T03:30:41;98541.91;;;6.38;94.40
34103;BME280;20381;54.498;18.206;2022-12-29T03:33:12;98535.83;;;6.39;94.37
34103;BME280;20381;54.498;18.206;2022-12-29T03:35:42;98532.31;;;6.40;94.33
34103;BME280;20381;54.498;18.206;2022-12-29T03:38:13;98530.33;;;6.45;94.39
34103;BME280;20381;54.498;18.206;2022-12-29T03:43:45;98520.33;;;6.46;94.40
34103;BME280;20381;54.498;18.206;2022-12-29T03:46:11;98520.89;;;6.44;94.25
34103;BME280;20381;54.498;18.206;2022-12-29T03:48:38;98520.02;;;6.44;94.16
34103;BME280;20381;54.498;18.206;2022-12-29T03:51:05;98519.88;;;6.38;94.12
34103;BME280;20381;54.498;18.206;2022-12-29T03:53:31;98519.34;;;6.40;94.39
34103;BME280;20381;54.498;18.206;2022-12-29T03:55:58;98519.50;;;6.37;94.29
34103;BME280;20381;54.498;18.206;2022-12-29T03:58:24;98521.11;;;6.40;94.37
34103;BME280;20381;54.498;18.206;2022-12-29T04:00:51;98518.98;;;6.39;94.35
34103;BME280;20381;54.498;18.206;2022-12-29T04:03:17;98512.49;;;6.39;94.33
34103;BME280;20381;54.498;18.206;2022-12-29T04:05:47;98510.80;;;6.38;94.33
34103;BME280;20381;54.498;18.206;2022-12-29T04:08:23;98507.06;;;6.35;94.24
34103;BME280;20381;54.498;18.206;2022-12-29T04:10:49;98504.87;;;6.36;94.33
34103;BME280;20381;54.498;18.206;2022-12-29T04:13:18;98506.91;;;6.38;94.45
34103;BME280;20381;54.498;18.206;2022-12-29T04:15:44;98503.02;;;6.38;94.36
34103;BME280;20381;54.498;18.206;2022-12-29T04:18:13;98505.77;;;6.35;94.24
34103;BME280;20381;54.498;18.206;2022-12-29T04:21:16;98503.17;;;6.35;94.48
34103;BME280;20381;54.498;18.206;2022-12-29T04:23:43;98505.86;;;6.42;94.50
34103;BME280;20381;54.498;18.206;2022-12-29T04:26:09;98509.75;;;6.42;94.47
34103;BME280;20381;54.498;18.206;2022-12-29T04:28:36;98497.25;;;6.42;94.28
34103;BME280;20381;54.498;18.206;2022-12-29T04:31:04;98503.02;;;6.38;94.33
34103;BME280;20381;54.498;18.206;2022-12-29T04:33:34;98503.88;;;6.39;94.30
34103;BME280;20381;54.498;18.206;2022-12-29T04:35:59;98502.28;;;6.36;94.31
34103;BME280;20381;54.498;18.206;2022-12-29T04:38:25;98498.61;;;6.40;94.43
34103;BME280;20381;54.498;18.206;2022-12-29T04:41:00;98491.75;;;6.39;94.41
34103;BME280;20381;54.498;18.206;2022-12-29T04:43:27;98493.42;;;6.40;94.36
34103;BME280;20381;54.498;18.206;2022-12-29T04:45:54;98481.13;;;6.35;94.40
34103;BME280;20381;54.498;18.206;2022-12-29T04:48:21;98481.75;;;6.40;94.47
34103;BME280;20381;54.498;18.206;2022-12-29T04:50:49;98487.34;;;6.41;94.32
34103;BME280;20381;54.498;18.206;2022-12-29T04:53:16;98491.50;;;6.44;94.43
34103;BME280;20381;54.498;18.206;2022-12-29T04:55:43;98493.11;;;6.46;94.38
34103;BME280;20381;54.498;18.206;2022-12-29T04:58:09;98485.33;;;6.46;94.30
34103;BME280;20381;54.498;18.206;2022-12-29T05:00:36;98487.09;;;6.46;94.41
34103;BME280;20381;54.498;18.206;2022-12-29T05:03:02;98487.70;;;6.42;94.30
34103;BME280;20381;54.498;18.206;2022-12-29T05:05:29;98476.20;;;6.39;94.23
34103;BME280;20381;54.498;18.206;2022-12-29T05:07:56;98480.45;;;6.40;94.34
34103;BME280;20381;54.498;18.206;2022-12-29T05:10:23;98480.86;;;6.41;94.38
34103;BME280;20381;54.498;18.206;2022-12-29T05:12:49;98476.50;;;6.42;94.33
34103;BME280;20381;54.498;18.206;2022-12-29T05:15:16;98464.73;;;6.43;94.39
34103;BME280;20381;54.498;18.206;2022-12-29T05:17:48;98465.73;;;6.41;94.32
34103;BME280;20381;54.498;18.206;2022-12-29T05:20:15;98470.86;;;6.42;94.35
34103;BME280;20381;54.498;18.206;2022-12-29T05:22:41;98461.01;;;6.40;94.35
34103;BME280;20381;54.498;18.206;2022-12-29T05:25:09;98450.48;;;6.43;94.39
34103;BME280;20381;54.498;18.206;2022-12-29T05:27:35;98445.39;;;6.42;94.27
34103;BME280;20381;54.498;18.206;2022-12-29T05:30:03;98450.88;;;6.44;94.43
34103;BME280;20381;54.498;18.206;2022-12-29T05:32:31;98439.58;;;6.45;94.45
34103;BME280;20381;54.498;18.206;2022-12-29T05:34:58;98450.72;;;6.47;94.31
34103;BME280;20381;54.498;18.206;2022-12-29T05:37:25;98446.22;;;6.42;94.10
34103;BME280;20381;54.498;18.206;2022-12-29T05:39:51;98443.39;;;6.38;94.12
34103;BME280;20381;54.498;18.206;2022-12-29T05:42:18;98443.94;;;6.36;94.13
34103;BME280;20381;54.498;18.206;2022-12-29T05:44:44;98438.91;;;6.33;94.17
34103;BME280;20381;54.498;18.206;2022-12-29T05:47:11;98442.80;;;6.33;94.15
34103;BME280;20381;54.498;18.206;2022-12-29T05:49:37;98445.24;;;6.36;94.37
34103;BME280;20381;54.498;18.206;2022-12-29T05:52:04;98440.95;;;6.35;94.34
34103;BME280;20381;54.498;18.206;2022-12-29T05:54:31;98433.95;;;6.37;94.41
34103;BME280;20381;54.498;18.206;2022-12-29T05:56:59;98433.42;;;6.39;94.41
34103;BME280;20381;54.498;18.206;2022-12-29T05:59:25;98424.34;;;6.39;94.41
34103;BME280;20381;54.498;18.206;2022-12-29T06:01:52;98412.21;;;6.40;94.35
34103;BME280;20381;54.498;18.206;2022-12-29T06:04:19;98405.42;;;6.37;94.17
34103;BME280;20381;54.498;18.206;2022-12-29T06:06:45;98405.48;;;6.36;94.29
34103;BME280;20381;54.498;18.206;2022-12-29T06:09:12;98403.92;;;6.33;94.24
34103;BME280;20381;54.498;18.206;2022-12-29T06:11:38;98404.66;;;6.35;94.29
34103;BME280;20381;54.498;18.206;2022-12-29T06:14:07;98398.58;;;6.36;94.30
34103;BME280;20381;54.498;18.206;2022-12-29T06:16:33;98401.91;;;6.38;94.28
34103;BME280;20381;54.498;18.206;2022-12-29T06:19:02;98400.48;;;6.41;94.36
34103;BME280;20381;54.498;18.206;2022-12-29T06:21:29;98404.20;;;6.44;94.33
34103;BME280;20381;54.498;18.206;2022-12-29T06:23:55;98405.11;;;6.43;94.19
34103;BME280;20381;54.498;18.206;2022-12-29T06:26:22;98406.96;;;6.41;94.18
34103;BME280;20381;54.498;18.206;2022-12-29T06:28:50;98400.31;;;6.44;94.24
34103;BME280;20381;54.498;18.206;2022-12-29T06:31:17;98401.78;;;6.41;94.08
34103;BME280;20381;54.498;18.206;2022-12-29T06:33:43;98393.59;;;6.40;94.20
34103;BME280;20381;54.498;18.206;2022-12-29T06:36:10;98396.86;;;6.44;94.27
34103;BME280;20381;54.498;18.206;2022-12-29T06:38:40;98412.52;;;6.42;94.13
34103;BME280;20381;54.498;18.206;2022-12-29T06:41:09;98405.94;;;6.44;94.31
34103;BME280;20381;54.498;18.206;2022-12-29T06:43:36;98400.84;;;6.42;94.13
34103;BME280;20381;54.498;18.206;2022-12-29T06:46:04;98398.41;;;6.39;94.17
34103;BME280;20381;54.498;18.206;2022-12-29T06:48:31;98405.11;;;6.43;94.29
34103;BME280;20381;54.498;18.206;2022-12-29T06:50:57;98401.45;;;6.47;94.35
34103;BME280;20381;54.498;18.206;2022-12-29T06:53:24;98411.83;;;6.47;94.19
34103;BME280;20381;54.498;18.206;2022-12-29T06:55:51;98405.88;;;6.45;94.19
34103;BME280;20381;54.498;18.206;2022-12-29T06:58:17;98401.98;;;6.45;94.21
34103;BME280;20381;54.498;18.206;2022-12-29T07:00:47;98404.20;;;6.44;94.14
34103;BME280;20381;54.498;18.206;2022-12-29T07:03:19;98409.16;;;6.40;94.19
34103;BME280;20381;54.498;18.206;2022-12-29T07:05:49;98408.99;;;6.43;94.29
34103;BME280;20381;54.498;18.206;2022-12-29T07:08:18;98401.22;;;6.43;94.26
34103;BME280;20381;54.498;18.206;2022-12-29T07:10:51;98405.88;;;6.45;94.27
34103;BME280;20381;54.498;18.206;2022-12-29T07:13:22;98414.73;;;6.41;94.28
34103;BME280;20381;54.498;18.206;2022-12-29T07:15:53;98417.33;;;6.41;94.32
34103;BME280;20381;54.498;18.206;2022-12-29T07:18:22;98415.64;;;6.40;94.31
34103;BME280;20381;54.498;18.206;2022-12-29T07:20:48;98415.17;;;6.41;94.41
34103;BME280;20381;54.498;18.206;2022-12-29T07:23:15;98416.09;;;6.48;94.36
34103;BME280;20381;54.498;18.206;2022-12-29T07:25:42;98414.86;;;6.56;94.58
34103;BME280;20381;54.498;18.206;2022-12-29T07:28:12;98409.35;;;6.62;94.53
34103;BME280;20381;54.498;18.206;2022-12-29T07:30:41;98408.42;;;6.63;94.38
34103;BME280;20381;54.498;18.206;2022-12-29T07:33:11;98405.83;;;6.63;94.37
34103;BME280;20381;54.498;18.206;2022-12-29T07:35:38;98407.43;;;6.65;94.20
34103;BME280;20381;54.498;18.206;2022-12-29T07:38:05;98397.36;;;6.68;94.30
34103;BME280;20381;54.498;18.206;2022-12-29T07:40:31;98403.14;;;6.73;94.22
34103;BME280;20381;54.498;18.206;2022-12-29T07:42:58;98413.89;;;6.74;94.28
34103;BME280;20381;54.498;18.206;2022-12-29T07:45:49;98415.95;;;6.76;94.23
34103;BME280;20381;54.498;18.206;2022-12-29T07:48:06;98408.00;;;6.79;94.37
34103;BME280;20381;54.498;18.206;2022-12-29T07:50:34;98414.33;;;6.82;94.31
34103;BME280;20381;54.498;18.206;2022-12-29T07:53:02;98410.67;;;6.86;94.40
34103;BME280;20381;54.498;18.206;2022-12-29T07:55:29;98412.16;;;6.90;94.45
34103;BME280;20381;54.498;18.206;2022-12-29T07:57:56;98413.66;;;6.94;94.51
34103;BME280;20381;54.498;18.206;2022-12-29T08:00:22;98416.26;;;6.94;94.39
34103;BME280;20381;54.498;18.206;2022-12-29T08:02:54;98421.45;;;6.94;94.34
34103;BME280;20381;54.498;18.206;2022-12-29T08:05:30;98426.91;;;6.90;94.12
34103;BME280;20381;54.498;18.206;2022-12-29T08:07:56;98421.78;;;6.88;94.18
34103;BME280;20381;54.498;18.206;2022-12-29T08:10:40;98420.72;;;6.92;94.28
34103;BME280;20381;54.498;18.206;2022-12-29T08:13:08;98411.07;;;6.94;94.28
34103;BME280;20381;54.498;18.206;2022-12-29T08:18:29;98409.67;;;7.05;94.44
34103;BME280;20381;54.498;18.206;2022-12-29T08:21:01;98410.80;;;7.08;94.38
34103;BME280;20381;54.498;18.206;2022-12-29T08:23:31;98406.91;;;7.08;94.29
34103;BME280;20381;54.498;18.206;2022-12-29T08:26:01;98413.02;;;7.07;94.25
34103;BME280;20381;54.498;18.206;2022-12-29T08:28:29;98402.48;;;7.10;94.40
34103;BME280;20381;54.498;18.206;2022-12-29T08:31:00;98408.27;;;7.15;94.43
34103;BME280;20381;54.498;18.206;2022-12-29T08:33:30;98399.77;;;7.20;94.36
34103;BME280;20381;54.498;18.206;2022-12-29T08:36:05;98397.07;;;7.22;94.31
34103;BME280;20381;54.498;18.206;2022-12-29T08:38:37;98388.28;;;7.24;94.30
34103;BME280;20381;54.498;18.206;2022-12-29T08:41:03;98385.15;;;7.26;94.35
34103;BME280;20381;54.498;18.206;2022-12-29T08:43:30;98400.38;;;7.32;94.38
34103;BME280;20381;54.498;18.206;2022-12-29T08:45:58;98399.08;;;7.32;94.37
34103;BME280;20381;54.498;18.206;2022-12-29T08:48:28;98404.64;;;7.33;94.22
34103;BME280;20381;54.498;18.206;2022-12-29T08:50:54;98394.66;;;7.34;94.39
34103;BME280;20381;54.498;18.206;2022-12-29T08:53:23;98393.01;;;7.40;94.46
34103;BME280;20381;54.498;18.206;2022-12-29T08:55:56;98381.08;;;7.45;94.44
34103;BME280;20381;54.498;18.206;2022-12-29T08:58:41;98386.70;;;7.45;94.25
34103;BME280;20381;54.498;18.206;2022-12-29T09:01:00;98393.20;;;7.45;94.23
34103;BME280;20381;54.498;18.206;2022-12-29T09:03:27;98397.78;;;7.48;94.32
34103;BME280;20381;54.498;18.206;2022-12-29T09:05:55;98393.78;;;7.50;94.40
34103;BME280;20381;54.498;18.206;2022-12-29T09:08:24;98394.18;;;7.51;94.29
34103;BME280;20381;54.498;18.206;2022-12-29T09:10:55;98402.34;;;7.52;94.45
34103;BME280;20381;54.498;18.206;2022-12-29T09:13:24;98397.33;;;7.56;94.35
34103;BME280;20381;54.498;18.206;2022-12-29T09:15:58;98388.81;;;7.54;94.25
34103;BME280;20381;54.498;18.206;2022-12-29T09:18:26;98385.86;;;7.60;94.41
34103;BME280;20381;54.498;18.206;2022-12-29T09:20:57;98371.59;;;7.67;94.61
34103;BME280;20381;54.498;18.206;2022-12-29T09:23:26;98367.55;;;7.77;94.76
34103;BME280;20381;54.498;18.206;2022-12-29T09:25:53;98379.28;;;7.84;94.59
34103;BME280;20381;54.498;18.206;2022-12-29T09:28:21;98368.52;;;7.91;94.51
34103;BME280;20381;54.498;18.206;2022-12-29T09:30:48;98361.84;;;7.94;94.70
34103;BME280;20381;54.498;18.206;2022-12-29T09:33:18;98364.98;;;7.92;94.54
34103;BME280;20381;54.498;18.206;2022-12-29T09:35:53;98370.22;;;7.99;94.81
34103;BME280;20381;54.498;18.206;2022-12-29T09:38:19;98360.58;;;8.08;94.94
34103;BME280;20381;54.498;18.206;2022-12-29T09:41:06;98355.41;;;8.15;94.83
34103;BME280;20381;54.498;18.206;2022-12-29T09:44:07;98353.36;;;8.27;94.94
34103;BME280;20381;54.498;18.206;2022-12-29T09:47:03;98348.43;;;8.37;94.90
34103;BME280;20381;54.498;18.206;2022-12-29T09:49:35;98346.16;;;8.47;94.79
34103;BME280;20381;54.498;18.206;2022-12-29T09:52:16;98355.36;;;8.53;94.79
34103;BME280;20381;54.498;18.206;2022-12-29T09:54:53;98354.90;;;8.60;94.83
34103;BME280;20381;54.498;18.206;2022-12-29T10:00:23;98346.33;;;8.72;94.57
34103;BME280;20381;54.498;18.206;2022-12-29T10:18:32;98339.30;;;9.02;94.34
34103;BME280;20381;54.498;18.206;2022-12-29T10:23:56;98324.34;;;9.05;94.47
34103;BME280;20381;54.498;18.206;2022-12-29T10:26:27;98321.06;;;9.09;94.42
34103;BME280;20381;54.498;18.206;2022-12-29T10:29:02;98310.09;;;9.11;94.26
34103;BME280;20381;54.498;18.206;2022-12-29T10:31:49;98323.75;;;9.14;94.13
34103;BME280;20381;54.498;18.206;2022-12-29T10:34:36;98319.30;;;9.09;93.83
34103;BME280;20381;54.498;18.206;2022-12-29T10:39:52;98311.69;;;9.06;93.89
34103;BME280;20381;54.498;18.206;2022-12-29T10:42:25;98308.72;;;9.05;93.84
34103;BME280;20381;54.498;18.206;2022-12-29T10:44:58;98319.69;;;9.03;93.69
34103;BME280;20381;54.498;18.206;2022-12-29T10:47:31;98310.03;;;8.98;93.57
34103;BME280;20381;54.498;18.206;2022-12-29T10:50:00;98304.94;;;8.96;93.70
34103;BME280;20381;54.498;18.206;2022-12-29T10:52:28;98304.62;;;9.01;93.80
34103;BME280;20381;54.498;18.206;2022-12-29T10:55:09;98307.03;;;9.04;93.71
34103;BME280;20381;54.498;18.206;2022-12-29T10:57:44;98296.09;;;8.99;93.55
34103;BME280;20381;54.498;18.206;2022-12-29T11:00:17;98299.06;;;9.00;93.58
34103;BME280;20381;54.498;18.206;2022-12-29T11:03:30;98290.89;;;8.99;93.46
34103;BME280;20381;54.498;18.206;2022-12-29T11:06:05;98297.56;;;9.03;93.59
34103;BME280;20381;54.498;18.206;2022-12-29T11:11:33;98300.31;;;9.14;93.74
34103;BME280;20381;54.498;18.206;2022-12-29T11:17:05;98297.87;;;9.18;93.50
34103;BME280;20381;54.498;18.206;2022-12-29T11:19:33;98288.58;;;9.22;93.54
34103;BME280;20381;54.498;18.206;2022-12-29T11:22:26;98281.69;;;9.21;93.27
34103;BME280;20381;54.498;18.206;2022-12-29T11:24:55;98279.84;;;9.15;93.02
34103;BME280;20381;54.498;18.206;2022-12-29T11:27:34;98279.68;;;9.11;93.05
34103;BME280;20381;54.498;18.206;2022-12-29T11:29:58;98285.63;;;9.13;93.34
34103;BME280;20381;54.498;18.206;2022-12-29T11:32:33;98288.68;;;9.13;93.23
34103;BME280;20381;54.498;18.206;2022-12-29T11:35:04;98279.08;;;9.21;93.21
34103;BME280;20381;54.498;18.206;2022-12-29T11:37:43;98280.03;;;9.19;93.12
34103;BME280;20381;54.498;18.206;2022-12-29T11:40:19;98290.45;;;9.19;93.06
34103;BME280;20381;54.498;18.206;2022-12-29T11:42:54;98280.94;;;9.18;92.93
34103;BME280;20381;54.498;18.206;2022-12-29T11:45:31;98278.92;;;9.16;92.89
34103;BME280;20381;54.498;18.206;2022-12-29T11:48:16;98271.27;;;9.21;93.01
34103;BME280;20381;54.498;18.206;2022-12-29T11:50:54;98268.46;;;9.24;92.93
34103;BME280;20381;54.498;18.206;2022-12-29T11:53:45;98276.27;;;9.24;92.94
34103;BME280;20381;54.498;18.206;2022-12-29T11:56:17;98272.70;;;9.32;92.98
34103;BME280;20381;54.498;18.206;2022-12-29T11:58:46;98283.12;;;9.32;92.78
34103;BME280;20381;54.498;18.206;2022-12-29T12:01:38;98291.69;;;9.34;92.94
34103;BME280;20381;54.498;18.206;2022-12-29T12:04:18;98282.77;;;9.31;92.64
34103;BME280;20381;54.498;18.206;2022-12-29T12:07:00;98281.59;;;9.22;92.53
34103;BME280;20381;54.498;18.206;2022-12-29T12:09:58;98290.59;;;9.24;92.88
34103;BME280;20381;54.498;18.206;2022-12-29T12:15:40;98290.59;;;9.31;92.81
34103;BME280;20381;54.498;18.206;2022-12-29T12:18:14;98279.96;;;9.34;92.81
34103;BME280;20381;54.498;18.206;2022-12-29T12:24:44;98287.58;;;9.37;92.81
34103;BME280;20381;54.498;18.206;2022-12-29T12:30:27;98277.90;;;9.39;92.53
34103;BME280;20381;54.498;18.206;2022-12-29T12:51:27;98255.58;;;9.35;92.33
34103;BME280;20381;54.498;18.206;2022-12-29T13:03:17;98266.75;;;9.30;92.28
34103;BME280;20381;54.498;18.206;2022-12-29T13:12:07;98287.23;;;9.29;92.34
34103;BME280;20381;54.498;18.206;2022-12-29T13:18:12;98290.47;;;9.32;92.40
34103;BME280;20381;54.498;18.206;2022-12-29T13:21:11;98278.30;;;9.33;92.48
34103;BME280;20381;54.498;18.206;2022-12-29T13:26:59;98285.46;;;9.29;92.36
34103;BME280;20381;54.498;18.206;2022-12-29T13:32:50;98292.30;;;9.17;92.30
34103;BME280;20381;54.498;18.206;2022-12-29T13:40:58;98295.09;;;9.22;92.29
34103;BME280;20381;54.498;18.206;2022-12-29T13:43:27;98301.77;;;9.18;92.36
34103;BME280;20381;54.498;18.206;2022-12-29T13:46:13;98301.77;;;9.18;92.33
34103;BME280;20381;54.498;18.206;2022-12-29T13:49:20;98297.70;;;9.14;92.23
34103;BME280;20381;54.498;18.206;2022-12-29T13:51:56;98289.89;;;9.14;92.35
34103;BME280;20381;54.498;18.206;2022-12-29T13:54:40;98284.89;;;9.11;92.29
34103;BME280;20381;54.498;18.206;2022-12-29T13:57:52;98298.66;;;9.06;92.10
34103;BME280;20381;54.498;18.206;2022-12-29T14:04:02;98314.33;;;8.99;92.23
34103;BME280;20381;54.498;18.206;2022-12-29T14:06:46;98306.88;;;8.93;92.07
34103;BME280;20381;54.498;18.206;2022-12-29T14:15:22;98295.20;;;8.79;91.91
34103;BME280;20381;54.498;18.206;2022-12-29T14:18:16;98300.98;;;8.62;91.60
34103;BME280;20381;54.498;18.206;2022-12-29T14:21:11;98297.67;;;8.46;91.48
34103;BME280;20381;54.498;18.206;2022-12-29T14:23:41;98304.13;;;8.32;91.84
34103;BME280;20381;54.498;18.206;2022-12-29T14:35:01;98305.23;;;8.06;91.86
34103;BME280;20381;54.498;18.206;2022-12-29T14:37:39;98300.22;;;8.03;92.05
34103;BME280;20381;54.498;18.206;2022-12-29T14:40:27;98301.34;;;7.99;92.08
34103;BME280;20381;54.498;18.206;2022-12-29T14:42:53;98311.34;;;7.98;92.07
34103;BME280;20381;54.498;18.206;2022-12-29T14:45:29;98300.95;;;7.91;91.89
34103;BME280;20381;54.498;18.206;2022-12-29T14:47:58;98294.64;;;7.88;92.01
34103;BME280;20381;54.498;18.206;2022-12-29T14:50:42;98297.78;;;7.85;91.99
34103;BME280;20381;54.498;18.206;2022-12-29T14:56:10;98300.93;;;7.76;91.94
34103;BME280;20381;54.498;18.206;2022-12-29T15:12:43;98318.47;;;7.50;92.09
34103;BME280;20381;54.498;18.206;2022-12-29T15:18:23;98307.14;;;7.44;92.38
34103;BME280;20381;54.498;18.206;2022-12-29T15:20:57;98318.28;;;7.46;92.51
34103;BME280;20381;54.498;18.206;2022-12-29T15:23:25;98323.66;;;7.50;92.79
34103;BME280;20381;54.498;18.206;2022-12-29T15:28:41;98321.75;;;7.60;92.88
34103;BME280;20381;54.498;18.206;2022-12-29T15:31:17;98321.87;;;7.66;92.95
34103;BME280;20381;54.498;18.206;2022-12-29T15:33:47;98332.47;;;7.70;92.87
34103;BME280;20381;54.498;18.206;2022-12-29T15:36:21;98329.88;;;7.70;92.77
34103;BME280;20381;54.498;18.206;2022-12-29T15:38:53;98315.19;;;7.69;92.87
34103;BME280;20381;54.498;18.206;2022-12-29T15:41:45;98312.41;;;7.72;93.01
34103;BME280;20381;54.498;18.206;2022-12-29T15:44:39;98314.21;;;7.79;93.12
34103;BME280;20381;54.498;18.206;2022-12-29T15:47:26;98317.45;;;7.82;93.07
34103;BME280;20381;54.498;18.206;2022-12-29T15:50:01;98319.52;;;7.84;93.08
34103;BME280;20381;54.498;18.206;2022-12-29T15:53:03;98320.99;;;7.89;93.15
34103;BME280;20381;54.498;18.206;2022-12-29T15:55:33;98319.91;;;7.93;93.25
34103;BME280;20381;54.498;18.206;2022-12-29T15:58:04;98312.00;;;7.94;93.22
34103;BME280;20381;54.498;18.206;2022-12-29T16:00:38;98314.59;;;7.94;93.26
34103;BME280;20381;54.498;18.206;2022-12-29T16:03:05;98314.52;;;7.96;93.21
34103;BME280;20381;54.498;18.206;2022-12-29T16:05:41;98319.72;;;7.96;93.13
34103;BME280;20381;54.498;18.206;2022-12-29T16:08:36;98322.86;;;7.94;93.14
34103;BME280;20381;54.498;18.206;2022-12-29T16:13:49;98325.09;;;7.93;93.20
34103;BME280;20381;54.498;18.206;2022-12-29T16:16:26;98321.92;;;7.88;93.05
34103;BME280;20381;54.498;18.206;2022-12-29T16:19:02;98326.38;;;7.85;93.15
34103;BME280;20381;54.498;18.206;2022-12-29T16:21:37;98331.93;;;7.87;93.29
34103;BME280;20381;54.498;18.206;2022-12-29T16:24:09;98336.77;;;7.85;93.32
34103;BME280;20381;54.498;18.206;2022-12-29T16:27:10;98337.88;;;7.81;93.14
34103;BME280;20381;54.498;18.206;2022-12-29T16:29:55;98331.93;;;7.79;93.17
34103;BME280;20381;54.498;18.206;2022-12-29T16:32:24;98338.14;;;7.77;93.42
34103;BME280;20381;54.498;18.206;2022-12-29T16:35:09;98334.34;;;7.82;93.56
34103;BME280;20381;54.498;18.206;2022-12-29T16:37:36;98345.14;;;7.91;93.65
34103;BME280;20381;54.498;18.206;2022-12-29T16:43:01;98347.77;;;8.05;93.71
34103;BME280;20381;54.498;18.206;2022-12-29T16:51:03;98324.56;;;8.30;93.95
34103;BME280;20381;54.498;18.206;2022-12-29T16:53:38;98323.63;;;8.32;93.75
34103;BME280;20381;54.498;18.206;2022-12-29T16:56:17;98330.52;;;8.33;93.70
34103;BME280;20381;54.498;18.206;2022-12-29T16:59:03;98338.13;;;8.21;93.18
34103;BME280;20381;54.498;18.206;2022-12-29T17:01:38;98342.09;;;8.05;92.97
34103;BME280;20381;54.498;18.206;2022-12-29T17:04:09;98334.73;;;7.91;92.88
34103;BME280;20381;54.498;18.206;2022-12-29T17:06:37;98332.94;;;7.77;92.76
34103;BME280;20381;54.498;18.206;2022-12-29T17:09:18;98340.70;;;7.62;92.75
34103;BME280;20381;54.498;18.206;2022-12-29T17:11:57;98338.23;;;7.52;92.72
34103;BME280;20381;54.498;18.206;2022-12-29T17:17:15;98347.34;;;7.36;92.68
34103;BME280;20381;54.498;18.206;2022-12-29T17:20:14;98345.27;;;7.27;92.65
34103;BME280;20381;54.498;18.206;2022-12-29T17:22:46;98349.32;;;7.17;92.64
34103;BME280;20381;54.498;18.206;2022-12-29T17:25:16;98347.97;;;7.10;92.64
34103;BME280;20381;54.498;18.206;2022-12-29T17:30:21;98348.66;;;6.98;92.75
34103;BME280;20381;54.498;18.206;2022-12-29T17:32:51;98350.66;;;6.92;92.81
34103;BME280;20381;54.498;18.206;2022-12-29T17:35:21;98355.55;;;6.90;92.87
34103;BME280;20381;54.498;18.206;2022-12-29T17:37:48;98358.78;;;6.86;92.94
34103;BME280;20381;54.498;18.206;2022-12-29T17:40:21;98363.20;;;6.84;93.01